sensor_id;sensor_type;location;lat;lon;timestamp;P1;durP1;ratioP1;P2;durP2;ratioP2
63955;SDS011;50131;52.084;5.228;2022-08-25T00:00:46;11.0;;;9.9;;
63955;SDS011;50131;52.084;5.228;2022-08-25T00:02:24;11.4;;;10.3;;
63955;SDS011;50131;52.084;5.228;2022-08-25T00:04:01;10.9;;;10.0;;
63955;SDS011;50131;52.084;5.228;2022-08-25T00:05:42;16.2;;;15.0;;
63955;SDS011;50131;52.084;5.228;2022-08-25T00:08:58;17.41;;;16.2;;
63955;SDS011;50131;52.084;5.228;2022-08-25T00:10:35;18.3;;;17.0;;
63955;SDS011;50131;52.084;5.228;2022-08-25T00:12:13;17.3;;;16.11;;
63955;SDS011;50131;52.084;5.228;2022-08-25T00:15:30;19.0;;;17.61;;
63955;SDS011;50131;52.084;5.228;2022-08-25T00:17:07;18.2;;;16.61;;
63955;SDS011;50131;52.084;5.228;2022-08-25T00:18:45;20.8;;;19.3;;
63955;SDS011;50131;52.084;5.228;2022-08-25T00:20:25;19.7;;;18.41;;
63955;SDS011;50131;52.084;5.228;2022-08-25T00:23:41;19.41;;;17.91;;
63955;SDS011;50131;52.084;5.228;2022-08-25T00:25:18;18.2;;;16.7;;
63955;SDS011;50131;52.084;5.228;2022-08-25T00:26:57;19.2;;;17.8;;
63955;SDS011;50131;52.084;5.228;2022-08-25T00:28:35;18.61;;;17.2;;
63955;SDS011;50131;52.084;5.228;2022-08-25T00:31:54;18.41;;;17.0;;
63955;SDS011;50131;52.084;5.228;2022-08-25T00:33:31;18.41;;;17.11;;
63955;SDS011;50131;52.084;5.228;2022-08-25T00:35:08;18.5;;;17.11;;
63955;SDS011;50131;52.084;5.228;2022-08-25T00:38:23;17.61;;;16.2;;
63955;SDS011;50131;52.084;5.228;2022-08-25T00:39:59;21.9;;;20.41;;
63955;SDS011;50131;52.084;5.228;2022-08-25T00:41:36;18.3;;;16.8;;
63955;SDS011;50131;52.084;5.228;2022-08-25T00:43:15;18.5;;;17.2;;
63955;SDS011;50131;52.084;5.228;2022-08-25T00:46:30;17.8;;;16.4;;
63955;SDS011;50131;52.084;5.228;2022-08-25T00:48:10;17.8;;;16.5;;
63955;SDS011;50131;52.084;5.228;2022-08-25T00:49:48;18.41;;;16.8;;
63955;SDS011;50131;52.084;5.228;2022-08-25T00:53:20;18.11;;;16.7;;
63955;SDS011;50131;52.084;5.228;2022-08-25T00:54:58;19.0;;;17.41;;
63955;SDS011;50131;52.084;5.228;2022-08-25T00:56:37;21.8;;;20.41;;
63955;SDS011;50131;52.084;5.228;2022-08-25T00:58:15;21.6;;;20.2;;
63955;SDS011;50131;52.084;5.228;2022-08-25T01:01:33;17.0;;;15.7;;
63955;SDS011;50131;52.084;5.228;2022-08-25T01:03:10;18.0;;;16.8;;
63955;SDS011;50131;52.084;5.228;2022-08-25T01:04:47;17.61;;;16.2;;
63955;SDS011;50131;52.084;5.228;2022-08-25T01:06:24;17.11;;;15.7;;
63955;SDS011;50131;52.084;5.228;2022-08-25T01:09:40;18.3;;;17.11;;
63955;SDS011;50131;52.084;5.228;2022-08-25T01:11:18;17.8;;;16.2;;
63955;SDS011;50131;52.084;5.228;2022-08-25T01:12:57;15.2;;;14.0;;
63955;SDS011;50131;52.084;5.228;2022-08-25T01:14:40;17.0;;;15.7;;
63955;SDS011;50131;52.084;5.228;2022-08-25T01:17:56;22.7;;;21.1;;
63955;SDS011;50131;52.084;5.228;2022-08-25T01:19:33;18.11;;;16.7;;
63955;SDS011;50131;52.084;5.228;2022-08-25T01:21:10;17.5;;;16.0;;
63955;SDS011;50131;52.084;5.228;2022-08-25T01:24:27;22.5;;;20.9;;
63955;SDS011;50131;52.084;5.228;2022-08-25T01:26:27;17.41;;;16.11;;
63955;SDS011;50131;52.084;5.228;2022-08-25T01:28:06;16.2;;;15.0;;
63955;SDS011;50131;52.084;5.228;2022-08-25T01:29:43;11.8;;;10.8;;
63955;SDS011;50131;52.084;5.228;2022-08-25T01:31:19;12.6;;;11.3;;
63955;SDS011;50131;52.084;5.228;2022-08-25T01:34:33;17.91;;;16.61;;
63955;SDS011;50131;52.084;5.228;2022-08-25T01:36:16;17.91;;;16.61;;
63955;SDS011;50131;52.084;5.228;2022-08-25T01:37:54;17.0;;;15.8;;
63955;SDS011;50131;52.084;5.228;2022-08-25T01:41:09;19.0;;;17.61;;
63955;SDS011;50131;52.084;5.228;2022-08-25T01:42:51;17.91;;;16.2;;
63955;SDS011;50131;52.084;5.228;2022-08-25T01:44:35;15.9;;;14.6;;
63955;SDS011;50131;52.084;5.228;2022-08-25T01:46:14;16.7;;;15.2;;
63955;SDS011;50131;52.084;5.228;2022-08-25T01:49:26;16.2;;;15.0;;
63955;SDS011;50131;52.084;5.228;2022-08-25T01:51:02;16.4;;;15.2;;
63955;SDS011;50131;52.084;5.228;2022-08-25T01:52:44;16.4;;;15.1;;
63955;SDS011;50131;52.084;5.228;2022-08-25T01:54:28;16.61;;;15.2;;
63955;SDS011;50131;52.084;5.228;2022-08-25T01:57:45;17.8;;;16.4;;
63955;SDS011;50131;52.084;5.228;2022-08-25T01:59:22;16.9;;;15.6;;
63955;SDS011;50131;52.084;5.228;2022-08-25T02:01:01;17.5;;;16.3;;
63955;SDS011;50131;52.084;5.228;2022-08-25T02:04:18;15.9;;;14.8;;
63955;SDS011;50131;52.084;5.228;2022-08-25T02:05:55;16.8;;;15.6;;
63955;SDS011;50131;52.084;5.228;2022-08-25T02:07:33;17.5;;;16.2;;
63955;SDS011;50131;52.084;5.228;2022-08-25T02:09:11;16.5;;;15.1;;
63955;SDS011;50131;52.084;5.228;2022-08-25T02:12:29;16.2;;;14.9;;
63955;SDS011;50131;52.084;5.228;2022-08-25T02:14:09;15.6;;;14.4;;
63955;SDS011;50131;52.084;5.228;2022-08-25T02:15:50;16.3;;;15.1;;
63955;SDS011;50131;52.084;5.228;2022-08-25T02:17:28;15.6;;;14.3;;
63955;SDS011;50131;52.084;5.228;2022-08-25T02:20:46;17.61;;;16.3;;
63955;SDS011;50131;52.084;5.228;2022-08-25T02:22:23;15.7;;;14.6;;
63955;SDS011;50131;52.084;5.228;2022-08-25T02:23:59;16.4;;;15.2;;
63955;SDS011;50131;52.084;5.228;2022-08-25T02:27:15;17.0;;;15.8;;
63955;SDS011;50131;52.084;5.228;2022-08-25T02:28:51;18.5;;;17.3;;
63955;SDS011;50131;52.084;5.228;2022-08-25T02:30:29;17.91;;;16.4;;
63955;SDS011;50131;52.084;5.228;2022-08-25T02:32:06;16.2;;;14.9;;
63955;SDS011;50131;52.084;5.228;2022-08-25T02:35:19;17.2;;;15.8;;
63955;SDS011;50131;52.084;5.228;2022-08-25T02:36:56;16.9;;;15.8;;
63955;SDS011;50131;52.084;5.228;2022-08-25T02:38:33;18.61;;;17.3;;
63955;SDS011;50131;52.084;5.228;2022-08-25T02:41:48;17.0;;;15.8;;
63955;SDS011;50131;52.084;5.228;2022-08-25T02:43:26;18.41;;;17.11;;
63955;SDS011;50131;52.084;5.228;2022-08-25T02:45:03;17.11;;;15.8;;
63955;SDS011;50131;52.084;5.228;2022-08-25T02:46:40;20.0;;;18.61;;
63955;SDS011;50131;52.084;5.228;2022-08-25T02:49:54;17.8;;;16.3;;
63955;SDS011;50131;52.084;5.228;2022-08-25T02:51:31;16.2;;;15.1;;
63955;SDS011;50131;52.084;5.228;2022-08-25T02:53:09;16.8;;;15.6;;
63955;SDS011;50131;52.084;5.228;2022-08-25T02:56:21;16.0;;;14.9;;
63955;SDS011;50131;52.084;5.228;2022-08-25T02:57:58;17.0;;;15.8;;
63955;SDS011;50131;52.084;5.228;2022-08-25T02:59:34;17.8;;;16.4;;
63955;SDS011;50131;52.084;5.228;2022-08-25T03:02:49;16.8;;;15.6;;
63955;SDS011;50131;52.084;5.228;2022-08-25T03:04:25;16.61;;;15.4;;
63955;SDS011;50131;52.084;5.228;2022-08-25T03:06:01;16.7;;;15.5;;
63955;SDS011;50131;52.084;5.228;2022-08-25T03:07:37;40.0;;;37.6;;
63955;SDS011;50131;52.084;5.228;2022-08-25T03:10:51;33.5;;;31.3;;
63955;SDS011;50131;52.084;5.228;2022-08-25T03:12:26;40.31;;;37.9;;
63955;SDS011;50131;52.084;5.228;2022-08-25T03:14:03;37.5;;;35.4;;
63955;SDS011;50131;52.084;5.228;2022-08-25T03:17:19;41.9;;;39.5;;
63955;SDS011;50131;52.084;5.228;2022-08-25T03:18:55;39.1;;;36.71;;
63955;SDS011;50131;52.084;5.228;2022-08-25T03:20:34;36.81;;;34.71;;
63955;SDS011;50131;52.084;5.228;2022-08-25T03:22:10;41.1;;;38.9;;
63955;SDS011;50131;52.084;5.228;2022-08-25T03:28:16;41.7;;;38.9;;
63955;SDS011;50131;52.084;5.228;2022-08-25T03:29:55;36.1;;;34.0;;
63955;SDS011;50131;52.084;5.228;2022-08-25T03:31:32;42.0;;;39.71;;
63955;SDS011;50131;52.084;5.228;2022-08-25T03:33:09;38.9;;;36.6;;
63955;SDS011;50131;52.084;5.228;2022-08-25T03:34:46;33.8;;;31.8;;
63955;SDS011;50131;52.084;5.228;2022-08-25T03:38:00;37.21;;;35.0;;
63955;SDS011;50131;52.084;5.228;2022-08-25T03:39:39;35.31;;;33.1;;
63955;SDS011;50131;52.084;5.228;2022-08-25T03:41:18;36.1;;;34.0;;
63955;SDS011;50131;52.084;5.228;2022-08-25T03:44:32;31.7;;;29.8;;
63955;SDS011;50131;52.084;5.228;2022-08-25T03:46:14;24.7;;;23.0;;
63955;SDS011;50131;52.084;5.228;2022-08-25T03:47:53;35.31;;;33.21;;
63955;SDS011;50131;52.084;5.228;2022-08-25T03:49:30;21.5;;;20.0;;
63955;SDS011;50131;52.084;5.228;2022-08-25T03:52:42;20.0;;;18.7;;
63955;SDS011;50131;52.084;5.228;2022-08-25T03:54:20;18.0;;;16.8;;
63955;SDS011;50131;52.084;5.228;2022-08-25T03:55:59;19.91;;;18.5;;
63955;SDS011;50131;52.084;5.228;2022-08-25T03:59:13;18.7;;;17.41;;
63955;SDS011;50131;52.084;5.228;2022-08-25T04:00:50;20.8;;;19.2;;
63955;SDS011;50131;52.084;5.228;2022-08-25T04:02:26;22.1;;;20.8;;
63955;SDS011;50131;52.084;5.228;2022-08-25T04:04:03;37.4;;;35.31;;
63955;SDS011;50131;52.084;5.228;2022-08-25T04:07:17;38.0;;;35.9;;
63955;SDS011;50131;52.084;5.228;2022-08-25T04:08:54;34.71;;;32.9;;
63955;SDS011;50131;52.084;5.228;2022-08-25T04:10:31;34.4;;;32.4;;
63955;SDS011;50131;52.084;5.228;2022-08-25T04:13:46;23.4;;;22.1;;
63955;SDS011;50131;52.084;5.228;2022-08-25T04:15:24;20.7;;;19.11;;
63955;SDS011;50131;52.084;5.228;2022-08-25T04:17:00;19.0;;;17.91;;
63955;SDS011;50131;52.084;5.228;2022-08-25T04:20:14;12.1;;;11.1;;
63955;SDS011;50131;52.084;5.228;2022-08-25T04:21:50;14.8;;;13.7;;
63955;SDS011;50131;52.084;5.228;2022-08-25T04:23:27;40.1;;;38.1;;
63955;SDS011;50131;52.084;5.228;2022-08-25T04:25:03;36.1;;;34.1;;
63955;SDS011;50131;52.084;5.228;2022-08-25T04:28:21;50.8;;;47.9;;
63955;SDS011;50131;52.084;5.228;2022-08-25T04:29:57;55.2;;;52.1;;
63955;SDS011;50131;52.084;5.228;2022-08-25T04:31:35;29.8;;;28.1;;
63955;SDS011;50131;52.084;5.228;2022-08-25T04:34:51;36.9;;;34.9;;
63955;SDS011;50131;52.084;5.228;2022-08-25T04:36:27;18.3;;;17.11;;
63955;SDS011;50131;52.084;5.228;2022-08-25T04:38:04;18.3;;;17.11;;
63955;SDS011;50131;52.084;5.228;2022-08-25T04:39:41;41.7;;;39.6;;
63955;SDS011;50131;52.084;5.228;2022-08-25T04:42:57;38.71;;;36.71;;
63955;SDS011;50131;52.084;5.228;2022-08-25T04:44:34;51.7;;;48.8;;
63955;SDS011;50131;52.084;5.228;2022-08-25T04:46:12;34.1;;;32.0;;
63955;SDS011;50131;52.084;5.228;2022-08-25T04:49:27;45.7;;;43.2;;
63955;SDS011;50131;52.084;5.228;2022-08-25T04:51:05;41.4;;;38.9;;
63955;SDS011;50131;52.084;5.228;2022-08-25T04:52:45;41.1;;;38.71;;
63955;SDS011;50131;52.084;5.228;2022-08-25T04:54:21;30.5;;;28.7;;
63955;SDS011;50131;52.084;5.228;2022-08-25T04:57:35;39.71;;;37.5;;
63955;SDS011;50131;52.084;5.228;2022-08-25T04:59:13;39.31;;;36.9;;
63955;SDS011;50131;52.084;5.228;2022-08-25T05:00:50;33.4;;;31.3;;
63955;SDS011;50131;52.084;5.228;2022-08-25T05:04:04;36.0;;;33.9;;
63955;SDS011;50131;52.084;5.228;2022-08-25T05:07:19;33.4;;;31.5;;
63955;SDS011;50131;52.084;5.228;2022-08-25T05:08:56;33.0;;;30.9;;
63955;SDS011;50131;52.084;5.228;2022-08-25T05:12:14;35.1;;;33.1;;
63955;SDS011;50131;52.084;5.228;2022-08-25T05:13:51;37.5;;;35.31;;
63955;SDS011;50131;52.084;5.228;2022-08-25T05:16:02;27.9;;;26.1;;
63955;SDS011;50131;52.084;5.228;2022-08-25T05:17:39;26.0;;;24.2;;
63955;SDS011;50131;52.084;5.228;2022-08-25T05:20:53;34.21;;;32.21;;
63955;SDS011;50131;52.084;5.228;2022-08-25T05:22:30;33.9;;;31.9;;
63955;SDS011;50131;52.084;5.228;2022-08-25T05:24:06;32.6;;;30.8;;
63955;SDS011;50131;52.084;5.228;2022-08-25T05:25:43;25.3;;;23.4;;
63955;SDS011;50131;52.084;5.228;2022-08-25T05:28:56;35.81;;;33.6;;
63955;SDS011;50131;52.084;5.228;2022-08-25T05:30:35;31.5;;;29.5;;
63955;SDS011;50131;52.084;5.228;2022-08-25T05:32:13;30.8;;;29.0;;
63955;SDS011;50131;52.084;5.228;2022-08-25T05:35:26;32.9;;;30.9;;
63955;SDS011;50131;52.084;5.228;2022-08-25T05:37:03;32.71;;;30.8;;
63955;SDS011;50131;52.084;5.228;2022-08-25T05:38:40;30.8;;;28.9;;
63955;SDS011;50131;52.084;5.228;2022-08-25T05:40:17;33.1;;;31.0;;
63955;SDS011;50131;52.084;5.228;2022-08-25T05:43:31;36.9;;;34.81;;
63955;SDS011;50131;52.084;5.228;2022-08-25T05:45:09;38.81;;;36.6;;
63955;SDS011;50131;52.084;5.228;2022-08-25T05:46:46;40.4;;;38.31;;
63955;SDS011;50131;52.084;5.228;2022-08-25T05:50:00;33.4;;;31.6;;
63955;SDS011;50131;52.084;5.228;2022-08-25T05:51:36;21.3;;;20.0;;
63955;SDS011;50131;52.084;5.228;2022-08-25T05:53:12;17.0;;;15.9;;
63955;SDS011;50131;52.084;5.228;2022-08-25T05:56:24;16.2;;;15.1;;
63955;SDS011;50131;52.084;5.228;2022-08-25T05:58:01;13.4;;;12.5;;
63955;SDS011;50131;52.084;5.228;2022-08-25T05:59:37;10.9;;;10.0;;
63955;SDS011;50131;52.084;5.228;2022-08-25T06:04:05;9.0;;;8.1;;
63955;SDS011;50131;52.084;5.228;2022-08-25T06:05:41;11.4;;;8.71;;
63955;SDS011;50131;52.084;5.228;2022-08-25T06:08:53;10.1;;;9.21;;
63955;SDS011;50131;52.084;5.228;2022-08-25T06:10:30;8.6;;;7.8;;
63955;SDS011;50131;52.084;5.228;2022-08-25T06:12:06;9.71;;;8.81;;
63955;SDS011;50131;52.084;5.228;2022-08-25T06:13:44;12.2;;;10.3;;
63955;SDS011;50131;52.084;5.228;2022-08-25T06:16:59;6.8;;;6.2;;
63955;SDS011;50131;52.084;5.228;2022-08-25T06:18:35;11.3;;;10.3;;
63955;SDS011;50131;52.084;5.228;2022-08-25T06:20:12;7.2;;;6.5;;
63955;SDS011;50131;52.084;5.228;2022-08-25T06:23:30;7.9;;;5.8;;
63955;SDS011;50131;52.084;5.228;2022-08-25T06:25:07;6.2;;;5.6;;
63955;SDS011;50131;52.084;5.228;2022-08-25T06:26:45;7.8;;;5.11;;
63955;SDS011;50131;52.084;5.228;2022-08-25T06:29:57;6.6;;;5.8;;
63955;SDS011;50131;52.084;5.228;2022-08-25T06:31:35;12.1;;;10.8;;
63955;SDS011;50131;52.084;5.228;2022-08-25T06:33:11;5.6;;;4.61;;
63955;SDS011;50131;52.084;5.228;2022-08-25T06:34:48;10.0;;;8.6;;
63955;SDS011;50131;52.084;5.228;2022-08-25T06:38:00;20.41;;;14.5;;
63955;SDS011;50131;52.084;5.228;2022-08-25T06:39:36;5.2;;;4.7;;
63955;SDS011;50131;52.084;5.228;2022-08-25T06:41:13;6.1;;;5.4;;
63955;SDS011;50131;52.084;5.228;2022-08-25T06:44:26;6.4;;;5.7;;
63955;SDS011;50131;52.084;5.228;2022-08-25T06:46:07;6.6;;;5.2;;
63955;SDS011;50131;52.084;5.228;2022-08-25T06:47:44;6.0;;;4.91;;
63955;SDS011;50131;52.084;5.228;2022-08-25T06:49:21;6.0;;;5.4;;
63955;SDS011;50131;52.084;5.228;2022-08-25T06:52:34;7.1;;;5.6;;
63955;SDS011;50131;52.084;5.228;2022-08-25T06:54:11;11.4;;;10.1;;
63955;SDS011;50131;52.084;5.228;2022-08-25T06:55:54;22.0;;;19.7;;
63955;SDS011;50131;52.084;5.228;2022-08-25T06:59:11;10.21;;;9.21;;
63955;SDS011;50131;52.084;5.228;2022-08-25T07:00:48;7.2;;;6.5;;
63955;SDS011;50131;52.084;5.228;2022-08-25T07:02:23;20.6;;;18.8;;
63955;SDS011;50131;52.084;5.228;2022-08-25T07:04:00;9.1;;;7.5;;
63955;SDS011;50131;52.084;5.228;2022-08-25T07:07:16;29.5;;;24.9;;
63955;SDS011;50131;52.084;5.228;2022-08-25T07:08:52;23.2;;;21.0;;
63955;SDS011;50131;52.084;5.228;2022-08-25T07:10:29;8.1;;;7.3;;
63955;SDS011;50131;52.084;5.228;2022-08-25T07:13:42;8.1;;;7.3;;
63955;SDS011;50131;52.084;5.228;2022-08-25T07:15:19;11.8;;;10.6;;
63955;SDS011;50131;52.084;5.228;2022-08-25T07:16:56;26.7;;;24.3;;
63955;SDS011;50131;52.084;5.228;2022-08-25T07:20:10;6.3;;;5.7;;
63955;SDS011;50131;52.084;5.228;2022-08-25T07:21:49;16.2;;;12.6;;
63955;SDS011;50131;52.084;5.228;2022-08-25T07:23:27;12.4;;;9.1;;
63955;SDS011;50131;52.084;5.228;2022-08-25T07:25:03;8.9;;;6.2;;
63955;SDS011;50131;52.084;5.228;2022-08-25T07:28:19;15.2;;;13.6;;
63955;SDS011;50131;52.084;5.228;2022-08-25T07:29:57;8.6;;;7.6;;
63955;SDS011;50131;52.084;5.228;2022-08-25T07:31:33;6.0;;;4.7;;
63955;SDS011;50131;52.084;5.228;2022-08-25T07:35:19;12.9;;;10.7;;
63955;SDS011;50131;52.084;5.228;2022-08-25T07:36:56;7.0;;;4.91;;
63955;SDS011;50131;52.084;5.228;2022-08-25T07:38:32;9.4;;;8.6;;
63955;SDS011;50131;52.084;5.228;2022-08-25T07:40:10;8.2;;;6.3;;
63955;SDS011;50131;52.084;5.228;2022-08-25T07:41:49;7.2;;;6.5;;
63955;SDS011;50131;52.084;5.228;2022-08-25T07:45:05;6.9;;;4.7;;
63955;SDS011;50131;52.084;5.228;2022-08-25T07:46:42;6.4;;;4.61;;
63955;SDS011;50131;52.084;5.228;2022-08-25T07:48:18;5.8;;;4.7;;
63955;SDS011;50131;52.084;5.228;2022-08-25T07:51:32;9.5;;;8.6;;
63955;SDS011;50131;52.084;5.228;2022-08-25T07:53:10;6.6;;;4.3;;
63955;SDS011;50131;52.084;5.228;2022-08-25T07:54:48;16.2;;;11.8;;
63955;SDS011;50131;52.084;5.228;2022-08-25T07:56:24;7.3;;;5.0;;
63955;SDS011;50131;52.084;5.228;2022-08-25T07:59:41;17.3;;;15.6;;
63955;SDS011;50131;52.084;5.228;2022-08-25T08:01:18;7.2;;;6.5;;
63955;SDS011;50131;52.084;5.228;2022-08-25T08:02:57;14.8;;;12.3;;
63955;SDS011;50131;52.084;5.228;2022-08-25T08:06:13;11.5;;;10.3;;
63955;SDS011;50131;52.084;5.228;2022-08-25T08:07:53;14.4;;;11.5;;
63955;SDS011;50131;52.084;5.228;2022-08-25T08:09:30;8.6;;;5.2;;
63955;SDS011;50131;52.084;5.228;2022-08-25T08:11:06;5.11;;;4.41;;
63955;SDS011;50131;52.084;5.228;2022-08-25T08:14:27;16.0;;;14.6;;
63955;SDS011;50131;52.084;5.228;2022-08-25T08:16:06;8.6;;;7.3;;
63955;SDS011;50131;52.084;5.228;2022-08-25T08:17:43;9.9;;;6.5;;
63955;SDS011;50131;52.084;5.228;2022-08-25T08:19:21;4.8;;;4.0;;
63955;SDS011;50131;52.084;5.228;2022-08-25T08:22:34;8.2;;;6.8;;
63955;SDS011;50131;52.084;5.228;2022-08-25T08:24:10;18.2;;;16.61;;
63955;SDS011;50131;52.084;5.228;2022-08-25T08:25:47;6.8;;;5.9;;
63955;SDS011;50131;52.084;5.228;2022-08-25T08:28:59;13.9;;;12.6;;
63955;SDS011;50131;52.084;5.228;2022-08-25T08:30:35;8.31;;;7.5;;
63955;SDS011;50131;52.084;5.228;2022-08-25T08:32:12;10.5;;;9.1;;
63955;SDS011;50131;52.084;5.228;2022-08-25T08:35:25;7.1;;;4.7;;
63955;SDS011;50131;52.084;5.228;2022-08-25T08:37:02;8.0;;;5.6;;
63955;SDS011;50131;52.084;5.228;2022-08-25T08:38:39;7.8;;;3.7;;
63955;SDS011;50131;52.084;5.228;2022-08-25T08:40:18;31.6;;;28.3;;
63955;SDS011;50131;52.084;5.228;2022-08-25T08:44:26;12.9;;;11.8;;
63955;SDS011;50131;52.084;5.228;2022-08-25T08:47:55;6.0;;;4.7;;
63955;SDS011;50131;52.084;5.228;2022-08-25T08:49:46;6.1;;;4.7;;
63955;SDS011;50131;52.084;5.228;2022-08-25T08:51:30;6.9;;;4.0;;
63955;SDS011;50131;52.084;5.228;2022-08-25T08:53:26;11.8;;;10.6;;
63955;SDS011;50131;52.084;5.228;2022-08-25T08:55:25;7.9;;;6.0;;
63955;SDS011;50131;52.084;5.228;2022-08-25T08:57:07;11.6;;;10.5;;
63955;SDS011;50131;52.084;5.228;2022-08-25T09:00:31;10.6;;;5.5;;
63955;SDS011;50131;52.084;5.228;2022-08-25T09:02:12;18.8;;;15.4;;
63955;SDS011;50131;52.084;5.228;2022-08-25T09:03:58;17.91;;;16.2;;
63955;SDS011;50131;52.084;5.228;2022-08-25T09:05:48;6.6;;;4.41;;
63955;SDS011;50131;52.084;5.228;2022-08-25T09:07:29;9.31;;;8.1;;
63955;SDS011;50131;52.084;5.228;2022-08-25T09:10:56;11.2;;;8.2;;
63955;SDS011;50131;52.084;5.228;2022-08-25T09:12:41;10.1;;;9.0;;
63955;SDS011;50131;52.084;5.228;2022-08-25T09:14:26;10.3;;;8.6;;
63955;SDS011;50131;52.084;5.228;2022-08-25T09:17:20;4.8;;;4.1;;
63955;SDS011;50131;52.084;5.228;2022-08-25T09:19:15;8.9;;;8.1;;
63955;SDS011;50131;52.084;5.228;2022-08-25T09:22:26;7.7;;;6.2;;
63955;SDS011;50131;52.084;5.228;2022-08-25T09:24:19;7.6;;;6.8;;
63955;SDS011;50131;52.084;5.228;2022-08-25T09:28:05;7.0;;;6.3;;
63955;SDS011;50131;52.084;5.228;2022-08-25T09:29:52;21.1;;;19.2;;
63955;SDS011;50131;52.084;5.228;2022-08-25T09:31:36;11.9;;;9.9;;
63955;SDS011;50131;52.084;5.228;2022-08-25T09:33:16;15.1;;;13.8;;
63955;SDS011;50131;52.084;5.228;2022-08-25T09:35:02;6.7;;;6.1;;
63955;SDS011;50131;52.084;5.228;2022-08-25T09:36:39;6.4;;;4.8;;
63955;SDS011;50131;52.084;5.228;2022-08-25T09:39:52;9.6;;;8.5;;
63955;SDS011;50131;52.084;5.228;2022-08-25T09:41:45;12.1;;;11.0;;
63955;SDS011;50131;52.084;5.228;2022-08-25T09:43:28;6.7;;;4.41;;
63955;SDS011;50131;52.084;5.228;2022-08-25T09:45:09;8.6;;;4.91;;
63955;SDS011;50131;52.084;5.228;2022-08-25T09:48:42;16.5;;;14.9;;
63955;SDS011;50131;52.084;5.228;2022-08-25T09:50:20;6.4;;;4.61;;
63955;SDS011;50131;52.084;5.228;2022-08-25T09:51:56;11.4;;;9.5;;
63955;SDS011;50131;52.084;5.228;2022-08-25T09:54:02;6.1;;;3.9;;
63955;SDS011;50131;52.084;5.228;2022-08-25T09:55:42;5.11;;;4.2;;
63955;SDS011;50131;52.084;5.228;2022-08-25T09:59:18;6.0;;;4.41;;
63955;SDS011;50131;52.084;5.228;2022-08-25T10:01:00;6.6;;;6.0;;
63955;SDS011;50131;52.084;5.228;2022-08-25T10:02:42;6.4;;;5.0;;
63955;SDS011;50131;52.084;5.228;2022-08-25T10:04:39;8.4;;;6.0;;
63955;SDS011;50131;52.084;5.228;2022-08-25T10:06:15;9.31;;;8.4;;
63955;SDS011;50131;52.084;5.228;2022-08-25T10:09:34;9.21;;;5.8;;
63955;SDS011;50131;52.084;5.228;2022-08-25T10:11:27;7.9;;;4.3;;
63955;SDS011;50131;52.084;5.228;2022-08-25T10:13:11;4.8;;;4.3;;
63955;SDS011;50131;52.084;5.228;2022-08-25T10:14:52;6.1;;;5.3;;
63955;SDS011;50131;52.084;5.228;2022-08-25T10:16:31;4.7;;;3.3;;
63955;SDS011;50131;52.084;5.228;2022-08-25T10:20:12;6.4;;;3.3;;
63955;SDS011;50131;52.084;5.228;2022-08-25T10:22:02;12.4;;;11.2;;
63955;SDS011;50131;52.084;5.228;2022-08-25T10:23:45;4.5;;;4.1;;
63955;SDS011;50131;52.084;5.228;2022-08-25T10:25:25;7.4;;;4.0;;
63955;SDS011;50131;52.084;5.228;2022-08-25T10:27:06;11.0;;;10.1;;
63955;SDS011;50131;52.084;5.228;2022-08-25T10:30:50;7.6;;;4.41;;
63955;SDS011;50131;52.084;5.228;2022-08-25T10:32:51;6.7;;;6.0;;
63955;SDS011;50131;52.084;5.228;2022-08-25T10:35:02;5.9;;;2.9;;
63955;SDS011;50131;52.084;5.228;2022-08-25T10:36:49;6.9;;;6.3;;
63955;SDS011;50131;52.084;5.228;2022-08-25T10:38:41;6.9;;;6.3;;
63955;SDS011;50131;52.084;5.228;2022-08-25T10:40:21;6.4;;;4.91;;
63955;SDS011;50131;52.084;5.228;2022-08-25T10:42:07;8.71;;;7.5;;
63955;SDS011;50131;52.084;5.228;2022-08-25T10:43:57;12.0;;;11.0;;
63955;SDS011;50131;52.084;5.228;2022-08-25T10:45:48;11.1;;;8.9;;
63955;SDS011;50131;52.084;5.228;2022-08-25T10:49:46;3.6;;;2.7;;
63955;SDS011;50131;52.084;5.228;2022-08-25T10:51:37;7.8;;;7.3;;
63955;SDS011;50131;52.084;5.228;2022-08-25T10:53:22;13.6;;;12.6;;
63955;SDS011;50131;52.084;5.228;2022-08-25T10:55:07;13.8;;;12.7;;
63955;SDS011;50131;52.084;5.228;2022-08-25T10:56:53;5.0;;;4.0;;
63955;SDS011;50131;52.084;5.228;2022-08-25T10:58:46;12.6;;;10.4;;
63955;SDS011;50131;52.084;5.228;2022-08-25T11:00:51;13.9;;;12.8;;
63955;SDS011;50131;52.084;5.228;2022-08-25T11:02:49;11.6;;;10.8;;
63955;SDS011;50131;52.084;5.228;2022-08-25T11:04:51;6.7;;;6.1;;
63955;SDS011;50131;52.084;5.228;2022-08-25T11:08:18;6.7;;;6.0;;
63955;SDS011;50131;52.084;5.228;2022-08-25T11:10:09;13.7;;;12.7;;
63955;SDS011;50131;52.084;5.228;2022-08-25T11:11:51;14.9;;;13.7;;
63955;SDS011;50131;52.084;5.228;2022-08-25T11:13:35;13.7;;;12.8;;
63955;SDS011;50131;52.084;5.228;2022-08-25T11:15:24;6.7;;;4.8;;
63955;SDS011;50131;52.084;5.228;2022-08-25T11:17:06;5.2;;;4.7;;
63955;SDS011;50131;52.084;5.228;2022-08-25T11:20:33;14.1;;;13.0;;
63955;SDS011;50131;52.084;5.228;2022-08-25T11:22:20;17.11;;;15.7;;
63955;SDS011;50131;52.084;5.228;2022-08-25T11:24:11;7.1;;;6.6;;
63955;SDS011;50131;52.084;5.228;2022-08-25T11:26:06;13.1;;;12.2;;
63955;SDS011;50131;52.084;5.228;2022-08-25T11:27:48;7.2;;;6.6;;
63955;SDS011;50131;52.084;5.228;2022-08-25T11:31:12;11.6;;;10.7;;
63955;SDS011;50131;52.084;5.228;2022-08-25T11:32:50;8.31;;;7.5;;
63955;SDS011;50131;52.084;5.228;2022-08-25T11:34:29;8.4;;;7.8;;
63955;SDS011;50131;52.084;5.228;2022-08-25T11:36:09;9.4;;;8.6;;
63955;SDS011;50131;52.084;5.228;2022-08-25T11:40:08;6.5;;;5.2;;
63955;SDS011;50131;52.084;5.228;2022-08-25T11:42:20;4.7;;;4.0;;
63955;SDS011;50131;52.084;5.228;2022-08-25T11:46:24;5.9;;;5.3;;
63955;SDS011;50131;52.084;5.228;2022-08-25T11:48:16;16.9;;;15.1;;
63955;SDS011;50131;52.084;5.228;2022-08-25T11:50:03;8.0;;;6.2;;
63955;SDS011;50131;52.084;5.228;2022-08-25T11:51:43;8.4;;;7.7;;
63955;SDS011;50131;52.084;5.228;2022-08-25T11:53:23;11.1;;;10.3;;
63955;SDS011;50131;52.084;5.228;2022-08-25T11:55:04;22.7;;;20.7;;
63955;SDS011;50131;52.084;5.228;2022-08-25T11:58:42;13.7;;;12.6;;
63955;SDS011;50131;52.084;5.228;2022-08-25T12:00:39;7.2;;;6.7;;
63955;SDS011;50131;52.084;5.228;2022-08-25T12:02:33;12.7;;;11.6;;
63955;SDS011;50131;52.084;5.228;2022-08-25T12:04:29;12.7;;;11.7;;
63955;SDS011;50131;52.084;5.228;2022-08-25T12:06:17;12.4;;;11.5;;
63955;SDS011;50131;52.084;5.228;2022-08-25T12:09:14;13.4;;;12.2;;
63955;SDS011;50131;52.084;5.228;2022-08-25T12:10:56;19.5;;;18.0;;
63955;SDS011;50131;52.084;5.228;2022-08-25T12:12:35;21.5;;;20.11;;
63955;SDS011;50131;52.084;5.228;2022-08-25T12:14:42;20.8;;;19.3;;
63955;SDS011;50131;52.084;5.228;2022-08-25T12:16:31;21.3;;;19.7;;
63955;SDS011;50131;52.084;5.228;2022-08-25T12:18:36;17.2;;;16.2;;
63955;SDS011;50131;52.084;5.228;2022-08-25T12:20:16;17.11;;;16.11;;
63955;SDS011;50131;52.084;5.228;2022-08-25T12:23:33;16.4;;;15.4;;
63955;SDS011;50131;52.084;5.228;2022-08-25T12:25:13;27.2;;;25.6;;
63955;SDS011;50131;52.084;5.228;2022-08-25T12:27:28;18.5;;;17.11;;
63955;SDS011;50131;52.084;5.228;2022-08-25T12:29:14;27.9;;;26.4;;
63955;SDS011;50131;52.084;5.228;2022-08-25T12:30:57;33.0;;;31.2;;
63955;SDS011;50131;52.084;5.228;2022-08-25T12:32:45;46.1;;;41.9;;
63955;SDS011;50131;52.084;5.228;2022-08-25T12:34:39;41.1;;;39.0;;
63955;SDS011;50131;52.084;5.228;2022-08-25T12:38:08;47.3;;;44.1;;
63955;SDS011;50131;52.084;5.228;2022-08-25T12:39:54;46.4;;;42.6;;
63955;SDS011;50131;52.084;5.228;2022-08-25T12:41:35;41.5;;;39.1;;
63955;SDS011;50131;52.084;5.228;2022-08-25T12:43:30;50.0;;;47.5;;
63955;SDS011;50131;52.084;5.228;2022-08-25T12:45:12;33.4;;;31.6;;
63955;SDS011;50131;52.084;5.228;2022-08-25T12:47:25;39.21;;;37.21;;
63955;SDS011;50131;52.084;5.228;2022-08-25T12:51:05;29.0;;;27.5;;
63955;SDS011;50131;52.084;5.228;2022-08-25T12:52:44;50.5;;;47.7;;